ADDS METAR Data INFO
IDs: Format: Raw Decoded Include TAF

Data at: 2158 UTC 24 Feb 2018

PAVA 242156Z AUTO 04003KT 10SM OVC018 M07/M10 A2993 RMK AO2 SNB20E30 SLP223 P0000 T10721100 FZRANO
PAVA 242056Z AUTO 35004KT 10SM OVC016 M08/M11 A2991 RMK AO2 SNE03 SLP216 P0000 60000 T10781106 53036 FZRANO
PAVA 241956Z AUTO 01011KT 9SM -SN BKN016 M09/M11 A2987 RMK AO2 SNE15B42 SLP203 P0000 T10941111 FZRANO
PAVA 241856Z AUTO 02013KT 6SM -SN BR FEW020 M11/M12 A2983 RMK AO2 SLP190 P0000 T11061122 FZRANO
PAVA 241756Z AUTO 36011KT 9SM -SN FEW031 OVC085 M10/M11 A2980 RMK AO2 SLP179 P0000 60000 T11001111 11072 21100 53028 FZRANO
PAVA 241656Z AUTO 35013KT 7SM -SN FEW029 BKN042 OVC100 M09/M11 A2976 RMK AO2 SLP166 P0000 T10891106 FZRANO
PAVA 241628Z AUTO 35012KT 7SM -SN FEW009 BKN041 OVC110 M09/M10 A2974 RMK AO2 P0000 FZRANO
PAVA 241612Z AUTO 35012KT 5SM -SN BR FEW009 BKN026 OVC038 M08/M09 A2973 RMK AO2 P0000 FZRANO
PAVA 241609Z AUTO 35012KT 5SM -SN BR SCT021 BKN029 OVC055 M08/M09 A2973 RMK AO2 P0000 FZRANO
PAVA 241556Z AUTO 35013KT 2 1/2SM -SN BR BKN021 BKN034 OVC060 M08/M09 A2972 RMK AO2 SLP151 P0000 T10781089 FZRANO
PAVA 241539Z AUTO 35010KT 7SM -SN SCT023 BKN030 OVC060 M08/M09 A2971 RMK AO2 P0000 FZRANO
PAVA 241528Z AUTO 36012KT 4SM -SN BR BKN023 OVC031 M08/M09 A2970 RMK AO2 P0000 FZRANO
PAVA 241509Z AUTO 36013KT 2 1/2SM -SN BR BKN023 OVC031 M08/M08 A2969 RMK AO2 P0000 FZRANO
PAVA 241456Z AUTO 01011KT 4SM -SN BR BKN023 BKN029 OVC100 M08/M09 A2968 RMK AO2 SLP139 P0000 60000 T10781089 53029 FZRANO
PAVA 241416Z AUTO 35010KT 8SM -SN BKN021 BKN027 OVC032 M08/M09 A2966 RMK AO2 P0000 FZRANO
PAVA 241407Z AUTO 35010KT 4SM -SN BR SCT023 OVC030 M08/M09 A2965 RMK AO2 P0000 FZRANO
PAVA 241356Z AUTO 36012KT 2SM -SN BR FEW018 BKN027 OVC042 M08/M08 A2964 RMK AO2 SLP124 P0000 T10781083 FZRANO
PAVA 241349Z AUTO 36012KT 2 1/2SM -SN BR BKN027 BKN036 OVC050 M08/M08 A2964 RMK AO2 P0000 FZRANO
PAVA 241343Z AUTO 36011KT 4SM -SN BR SCT027 BKN036 OVC050 M08/M08 A2963 RMK AO2 P0000 FZRANO
PAVA 241319Z AUTO 01010KT 3SM -SN FEW022 BKN027 OVC050 M07/ A2962 RMK AO2 P0000 FZRANO
PAVA 241256Z AUTO 01011KT 7SM -SN OVC050 M07/M08 A2961 RMK AO2 SLP113 P0000 T10721078 FZRANO
PAVA 241156Z AUTO 02011KT 4SM -SN BR OVC050 M07/M08 A2959 RMK AO2 SLP108 P0000 60000 T10721078 11056 21072 53022 FZRANO
PAVA 241141Z AUTO 02012KT 3SM -SN BR SCT023 OVC050 M07/M08 A2959 RMK AO2 P0000 FZRANO
PAVA 241129Z AUTO 02012KT 2 1/2SM -SN BR BKN023 OVC050 M07/M08 A2958 RMK AO2 P0000 FZRANO
PAVA 241056Z AUTO 02013KT 1 3/4SM -SN BR OVC025 M07/M08 A2957 RMK AO2 SLP100 P0000 T10671078 FZRANO
PAVA 241039Z AUTO 02016KT 1 3/4SM -SN BR FEW004 SCT018 OVC028 M07/M08 A2956 RMK AO2 P0000 FZRANO
PAVA 241034Z AUTO 03016KT 2SM -SN BR FEW004 SCT014 OVC030 M07/M08 A2956 RMK AO2 P0000 FZRANO
PAVA 241024Z AUTO 03016KT 1 1/2SM -SN BR FEW004 BKN018 OVC032 M07/M07 A2956 RMK AO2 P0000 FZRANO
PAVA 241012Z AUTO 03017KT 1SM -SN BR FEW004 BKN014 OVC023 M07/M07 A2955 RMK AO2 P0000 FZRANO
PAVA 241004Z AUTO 03016KT 3/4SM -SN BR SCT014 BKN019 OVC033 M07/M07 A2955 RMK AO2 P0000 FZRANO
PAVA 240956Z AUTO 03016KT 1 1/4SM -SN BR BKN023 OVC031 M07/M07 A2955 RMK AO2 SLP092 P0000 T10671072 FZRANO
PAVA 240951Z AUTO 03015KT 1 3/4SM -SN BR FEW021 BKN025 OVC039 M07/M07 A2955 RMK AO2 P0000 FZRANO
PAVA 240904Z AUTO 04015KT 4SM -SN BR FEW018 BKN043 OVC060 M06/M07 A2953 RMK AO2 P0000 FZRANO
PAVA 240856Z AUTO 04015KT 6SM -SN BR BKN018 BKN050 OVC060 M06/M07 A2953 RMK AO2 SLP085 P0000 60000 T10611072 51002 FZRANO
PAVA 240827Z AUTO 04015KT 3SM -SN BR OVC018 M06/M07 A2953 RMK AO2 P0000 FZRANO
PAVA 240818Z AUTO 04016KT 1 3/4SM -SN BR OVC018 M06/M07 A2953 RMK AO2 P0000 FZRANO
PAVA 240756Z AUTO 04017KT 2SM -SN BR OVC016 M06/M07 A2953 RMK AO2 SLP085 P0000 T10611067 410561078 FZRANO
PAVA 240753Z AUTO 04015KT 2SM -SN BR OVC016 M06/M07 A2953 RMK AO2 P0000 410561078 FZRANO
PAVA 240742Z AUTO 04014KT 2 1/2SM -SN BR M06/M07 A2953 RMK AO2 P0000 FZRANO
PAVA 240734Z AUTO 04015KT 3SM -SN BR M06/M07 A2953 RMK AO2 P0000 FZRANO
PAVA 240716Z AUTO 04014KT 2SM -SN BR M06/M07 A2953 RMK AO2 P0000 FZRANO $
PAVA 240656Z AUTO 05015KT 1 3/4SM -SN BR M06/M07 A2952 RMK AO2 SLP084 P0000 T10561067 FZRANO $
PAVA 240643Z AUTO 06016KT 1 3/4SM -SN BR M06/M07 A2953 RMK AO2 P0000 FZRANO $
PAVA 240634Z AUTO 06017KT 2SM -SN BR M06/M07 A2952 RMK AO2 P0000 FZRANO $
PAVA 240627Z AUTO 06017KT 3SM -SN BR M06/M07 A2953 RMK AO2 P0000 FZRANO $
PAVA 240608Z AUTO 07015KT 2 1/2SM -SN BR M06/M07 A2953 RMK AO2 P0000 FZRANO $
PAVA 240556Z AUTO 07016KT 1 3/4SM -SN BR M06/M07 A2954 RMK AO2 PK WND 07026/0504 SLP088 P0000 60000 T10611067 11056 21061 56024 FZRANO $
PAVA 240533Z AUTO 07019G24KT 1 1/4SM -SN BR M06/M07 A2954 RMK AO2 PK WND 07026/0504 P0000 FZRANO $
PAVA 240514Z AUTO 07019KT 2SM -SN BR M06/M07 A2955 RMK AO2 PK WND 07026/0504 P0000 FZRANO $
PAVA 240504Z AUTO 07021G26KT 1 1/4SM -SN BR M06/M07 A2955 RMK AO2 PK WND 07026/0504 P0000 FZRANO $
PAVA 240456Z AUTO 07019G27KT 3/4SM -SN BR M06/M07 A2955 RMK AO2 PK WND 07031/0430 SLP093 P0000 T10611067 FZRANO $
PAVA 240446Z AUTO 07021G28KT 1SM -SN BR M06/M07 A2955 RMK AO2 PK WND 07031/0430 P0000 FZRANO $
PAVA 240439Z AUTO 07023G31KT 3/4SM -SN BR M06/M07 A2955 RMK AO2 PK WND 07031/0430 P0000 FZRANO $
PAVA 240356Z AUTO 08024G31KT 1/2SM -SN FZFG M06/M07 A2957 RMK AO2 PK WND 08032/0349 SLP101 P0000 T10561067 FZRANO $
PAVA 240335Z AUTO 08026KT 1/2SM SN FZFG M06/M06 A2958 RMK AO2 PK WND 08032/0318 P0000 FZRANO $
PAVA 240256Z AUTO 08028KT 1/4SM SN FZFG M06/M06 A2961 RMK AO2 PK WND 08033/0222 SLP112 P0000 60000 T10561061 56055 FZRANO $
PAVA 240219Z AUTO 08026G31KT 1/4SM SN FZFG M06/M06 A2963 RMK AO2 PK WND 08032/0201 P0000 FZRANO $
PAVA 240208Z AUTO 08024G32KT 1/2SM SN FZFG M06/M06 A2964 RMK AO2 PK WND 08032/0201 P0000 FZRANO $
PAVA 240156Z AUTO 07023G32KT 1/4SM +SN FZFG M06/M06 A2965 RMK AO2 PK WND 07032/0152 SLP127 P0000 T10561061 FZRANO $
PAVA 240056Z AUTO 08028KT 1/4SM +SN FZFG M06/M07 A2970 RMK AO2 PK WND 08031/0040 PRESFR SLP145 P0000 T10561067 FZRANO $
PAVA 240033Z AUTO 08027G30KT 1/4SM +SN FZFG M06/M07 A2973 RMK AO2 PK WND 08030/0033 P0000 FZRANO $
PAVA 232356Z AUTO 07024G29KT 1/4SM SN FZFG VV004 M06/M07 A2977 RMK AO2 PK WND 08029/2354 PRESFR SLP168 P0000 60000 T10561067 11056 21061 56044 FZRANO
PAVA 232334Z AUTO 08023KT 1/4SM +SN FZFG CLR M06/M07 A2981 RMK AO2 PK WND 09027/2302 PRESFR P0000 FZRANO
PAVA 232320Z AUTO 08024KT 1/4SM SN FZFG VV010 M06/M07 A2983 RMK AO2 PK WND 09027/2302 P0000 FZRANO
PAVA 232256Z AUTO 09023KT 1/2SM -SN FZFG BKN012 BKN017 OVC025 M06/M07 A2985 RMK AO2 PK WND 09027/2249 PRESFR SLP194 P0000 T10561072 FZRANO
PAVA 232251Z AUTO 09023KT 1/2SM -SN FZFG BKN015 BKN025 OVC033 M06/M07 A2985 RMK AO2 PK WND 09027/2249 PRESFR P0000 FZRANO
PAVA 232246Z AUTO 09024KT 1SM -SN BR SCT017 BKN023 OVC038 M06/M07 A2986 RMK AO2 PK WND 09027/2246 P0000 FZRANO
PAVA 232239Z AUTO 09023KT 2 1/2SM -SN BR BKN023 BKN035 OVC041 M06/M07 A2987 RMK AO2 PK WND 09027/2212 PRESFR P0000 FZRANO
PAVA 232156Z AUTO 09023KT 6SM -SN BR FEW025 BKN038 OVC046 M06/M08 A2990 RMK AO2 PK WND 09027/2153 SNB23 PRESFR SLP213 P0000 T10561078 FZRANO
PAVA 232056Z AUTO 09022KT 10SM OVC060 M06/M08 A2998 RMK AO2 PK WND 09028/2024 SLP239 T10611083 56051 FZRANO
PAVA 232040Z AUTO 09021KT 10SM SCT010 OVC060 M06/M08 A2999 RMK AO2 PK WND 09028/2024 FZRANO
PAVA 231956Z AUTO 09021KT 10SM BKN012 BKN017 OVC065 M06/M08 A3003 RMK AO2 SLP256 T10611083 FZRANO
PAVA 231856Z AUTO 08019KT 10SM OVC017 M06/M08 A3007 RMK AO2 PRESFR SLP272 T10611078 FZRANO
PAVA 231756Z AUTO 09015KT 10SM OVC019 M06/M08 A3013 RMK AO2 SLP290 T10611083 11061 21078 58046 FZRANO
PAVA 231656Z AUTO 09012KT 10SM OVC019 M07/M08 A3018 RMK AO2 PRESFR SLP309 T10671083 FZRANO
PAVA 231608Z AUTO 09011KT 10SM BKN019 BKN120 M07/M09 A3021 RMK AO2 FZRANO
PAVA 231556Z AUTO 08012KT 10SM FEW021 BKN120 M07/M09 A3022 RMK AO2 SLP322 T10671089 FZRANO
PAVA 231510Z AUTO 09010KT 10SM SCT022 M07/M09 A3026 RMK AO2 FZRANO
PAVA 231456Z AUTO 07006KT 10SM BKN022 M07/M09 A3026 RMK AO2 SLP337 T10721089 56030 FZRANO
PAVA 231451Z AUTO 08010KT 10SM SCT022 M07/M09 A3027 RMK AO2 FZRANO
PAVA 231406Z AUTO 07004KT 10SM BKN022 M08/M09 A3031 RMK AO2 FZRANO
PAVA 231356Z AUTO 00000KT 10SM SCT022 M08/M09 A3031 RMK AO2 SLP354 T10781094 FZRANO
PAVA 231338Z AUTO 07003KT 10SM SCT022 M07/M09 A3033 RMK AO2 FZRANO
PAVA 231256Z AUTO 02003KT 10SM OVC022 M07/M09 A3035 RMK AO2 SLP367 T10671089 FZRANO
PAVA 231156Z AUTO 35004KT 10SM OVC022 M07/M09 A3038 RMK AO2 SLP377 T10721094 11039 21072 58013 FZRANO
PAVA 231117Z AUTO 30005KT 10SM BKN022 M07/M09 A3041 RMK AO2 FZRANO
PAVA 231104Z AUTO 29007KT 10SM SCT022 M07/M10 A3042 RMK AO2 FZRANO
PAVA 231056Z AUTO 29007KT 10SM BKN022 M06/M08 A3042 RMK AO2 SLP391 T10561083 FZRANO